Time;durP1;ratioP1;P1;durP2;ratioP2;P2;SDS_P1;SDS_P2;PMS_P1;PMS_P2;Temp;Humidity;BMP_temperature;BMP_pressure;BME280_temperature;BME280_humidity;BME280_pressure;Samples;Min_cycle;Max_cycle;Signal;HPM_P1;HPM_P2
2020/12/14 00:00:07;;;;;;;;;;;21.40;56.00;;;;;;5063466;28;1267;-65
2020/12/14 00:02:32;;;;;;;;;;;21.40;56.10;;;;;;5061987;28;1267;-64
2020/12/14 00:04:58;;;;;;;;;;;21.40;56.10;;;;;;5047175;28;1494;-64
2020/12/14 00:07:23;;;;;;;;;;;21.40;56.10;;;;;;5060049;28;1324;-63
2020/12/14 00:09:49;;;;;;;;;;;21.30;56.70;;;;;;5063347;28;1346;-64
2020/12/14 00:12:14;;;;;;;;;;;21.30;56.10;;;;;;5056602;28;1303;-64
2020/12/14 00:14:40;;;;;;;;;;;21.30;56.20;;;;;;5065145;28;1142;-65
2020/12/14 00:17:05;;;;;;;;;;;21.30;56.20;;;;;;5073644;28;1894;-66
2020/12/14 00:19:31;;;;;;;;;;;21.30;56.20;;;;;;5074151;28;1353;-67
2020/12/14 00:21:56;;;;;;;;;;;21.30;56.30;;;;;;5051237;28;1142;-65
2020/12/14 00:24:22;;;;;;;;;;;21.30;56.30;;;;;;5062667;28;1892;-66
2020/12/14 00:26:50;;;;;;;;;;;21.20;56.20;;;;;;5045260;28;1339;-65
2020/12/14 00:29:16;;;;;;;;;;;21.20;56.30;;;;;;5060829;28;1261;-67
2020/12/14 00:31:41;;;;;;;;;;;21.20;56.30;;;;;;5049335;28;1359;-66
2020/12/14 00:34:07;;;;;;;;;;;21.20;56.30;;;;;;5063751;28;1293;-66
2020/12/14 00:36:32;;;;;;;;;;;21.20;56.40;;;;;;5062352;28;1894;-66
2020/12/14 00:39:00;;;;;;;;;;;21.20;56.40;;;;;;5066004;28;1363;-65
2020/12/14 00:41:25;;;;;;;;;;;21.20;56.40;;;;;;5047895;28;1193;-65
2020/12/14 00:43:50;;;;;;;;;;;21.20;56.40;;;;;;5065054;28;1331;-67
2020/12/14 00:46:16;;;;;;;;;;;21.20;56.40;;;;;;5066416;28;1395;-66
2020/12/14 00:48:42;;;;;;;;;;;21.10;56.40;;;;;;5046743;28;1317;-66
2020/12/14 00:51:07;;;;;;;;;;;21.10;56.50;;;;;;5066940;28;1313;-66
2020/12/14 00:53:33;;;;;;;;;;;21.10;56.50;;;;;;5066265;28;1340;-66
2020/12/14 00:56:02;;;;;;;;;;;21.10;56.50;;;;;;5046577;28;1374;-67
2020/12/14 00:58:28;;;;;;;;;;;21.10;56.60;;;;;;5046687;28;1977;-66
2020/12/14 01:00:53;;;;;;;;;;;21.10;56.60;;;;;;5048224;28;1335;-66
2020/12/14 01:03:19;;;;;;;;;;;21.10;56.60;;;;;;5065518;28;1252;-66
2020/12/14 01:05:44;;;;;;;;;;;21.10;57.20;;;;;;5068904;28;1301;-65
2020/12/14 01:08:09;;;;;;;;;;;21.10;56.70;;;;;;5063770;28;1289;-66
2020/12/14 01:10:35;;;;;;;;;;;21.00;56.60;;;;;;5047158;28;1248;-67
2020/12/14 01:13:00;;;;;;;;;;;21.00;56.70;;;;;;5043063;28;1311;-67
2020/12/14 01:15:26;;;;;;;;;;;21.00;56.70;;;;;;5065310;28;1320;-66
2020/12/14 01:17:51;;;;;;;;;;;21.00;56.70;;;;;;5044426;28;1956;-65
2020/12/14 01:20:17;;;;;;;;;;;21.00;56.70;;;;;;5045225;28;1367;-66
2020/12/14 01:22:42;;;;;;;;;;;21.00;56.80;;;;;;5060408;28;1358;-67
2020/12/14 01:25:08;;;;;;;;;;;21.00;56.80;;;;;;5046346;28;1360;-66
2020/12/14 01:27:33;;;;;;;;;;;21.00;56.80;;;;;;5064874;28;1300;-66
2020/12/14 01:29:59;;;;;;;;;;;21.00;56.80;;;;;;5046331;28;1443;-66
2020/12/14 01:32:24;;;;;;;;;;;21.00;56.80;;;;;;5043511;28;1303;-66
2020/12/14 01:34:50;;;;;;;;;;;21.00;56.80;;;;;;5061230;28;1240;-66
2020/12/14 01:37:15;;;;;;;;;;;21.00;56.90;;;;;;5046007;28;1898;-66
2020/12/14 01:39:41;;;;;;;;;;;21.00;56.90;;;;;;5065726;28;1390;-66
2020/12/14 01:42:06;;;;;;;;;;;20.90;56.90;;;;;;5067486;28;1185;-66
2020/12/14 01:44:32;;;;;;;;;;;20.90;56.90;;;;;;5037064;28;1180;-66
2020/12/14 01:46:59;;;;;;;;;;;20.90;56.90;;;;;;5045560;28;1349;-66
2020/12/14 01:49:24;;;;;;;;;;;20.90;57.00;;;;;;5027553;28;1432;-66
2020/12/14 01:51:50;;;;;;;;;;;20.90;57.00;;;;;;5044678;28;1296;-66
2020/12/14 01:54:22;;;;;;;;;;;20.90;57.00;;;;;;5040216;28;1291;-66
2020/12/14 01:56:47;;;;;;;;;;;20.90;57.00;;;;;;5042956;28;1902;-66
2020/12/14 01:59:13;;;;;;;;;;;20.90;57.00;;;;;;5063016;28;1340;-67
2020/12/14 02:01:38;;;;;;;;;;;20.90;57.10;;;;;;5044319;28;1307;-65
2020/12/14 02:04:04;;;;;;;;;;;20.90;57.00;;;;;;5043731;28;1355;-67
2020/12/14 02:06:29;;;;;;;;;;;20.90;57.10;;;;;;5044054;28;1367;-67
2020/12/14 02:08:55;;;;;;;;;;;20.90;57.10;;;;;;5063529;28;1312;-67
2020/12/14 02:11:20;;;;;;;;;;;20.90;57.10;;;;;;5064754;28;1297;-67
2020/12/14 02:13:46;;;;;;;;;;;20.80;57.10;;;;;;5045384;28;1427;-67
2020/12/14 02:16:11;;;;;;;;;;;20.80;57.10;;;;;;5072444;28;1977;-67
2020/12/14 02:18:37;;;;;;;;;;;20.80;57.10;;;;;;5072255;28;1258;-66
2020/12/14 02:21:02;;;;;;;;;;;20.80;57.10;;;;;;5071966;28;1327;-66
2020/12/14 02:23:28;;;;;;;;;;;20.80;57.10;;;;;;5048098;28;1295;-67
2020/12/14 02:25:53;;;;;;;;;;;20.80;57.10;;;;;;5047275;28;1316;-67
2020/12/14 02:28:19;;;;;;;;;;;20.80;57.20;;;;;;5049658;28;1312;-65
2020/12/14 02:30:44;;;;;;;;;;;20.80;57.20;;;;;;5047043;28;1374;-66
2020/12/14 02:33:10;;;;;;;;;;;20.80;57.20;;;;;;5064911;28;1312;-66
2020/12/14 02:35:35;;;;;;;;;;;20.70;57.10;;;;;;5048846;28;1250;-66
2020/12/14 02:38:01;;;;;;;;;;;20.80;57.20;;;;;;5047595;28;1902;-66
2020/12/14 02:40:26;;;;;;;;;;;20.80;57.20;;;;;;5066966;28;1430;-66
2020/12/14 02:42:51;;;;;;;;;;;20.80;57.10;;;;;;5063829;28;1272;-67
2020/12/14 02:45:17;;;;;;;;;;;20.80;57.10;;;;;;5048577;28;1430;-67
2020/12/14 02:47:42;;;;;;;;;;;20.90;57.00;;;;;;5048975;28;1328;-66
2020/12/14 02:50:08;;;;;;;;;;;20.90;56.80;;;;;;5069101;28;1363;-67
2020/12/14 02:52:33;;;;;;;;;;;21.00;56.80;;;;;;5050554;28;1308;-66
2020/12/14 02:54:59;;;;;;;;;;;21.10;56.60;;;;;;5031847;28;1348;-67
2020/12/14 02:57:24;;;;;;;;;;;21.20;56.50;;;;;;5064423;28;1910;-67
2020/12/14 02:59:50;;;;;;;;;;;21.30;56.30;;;;;;5047550;28;1370;-66
2020/12/14 03:02:15;;;;;;;;;;;21.30;56.10;;;;;;5065304;28;1300;-65
2020/12/14 03:04:41;;;;;;;;;;;21.40;55.90;;;;;;5072059;28;1211;-66
2020/12/14 03:07:06;;;;;;;;;;;21.50;55.70;;;;;;5075835;28;1296;-65
2020/12/14 03:09:32;;;;;;;;;;;21.60;55.50;;;;;;5075338;28;1362;-67
2020/12/14 03:12:00;;;;;;;;;;;21.70;55.30;;;;;;5075397;28;1382;-67
2020/12/14 03:14:26;;;;;;;;;;;21.70;55.10;;;;;;5049703;28;1561;-66
2020/12/14 03:16:51;;;;;;;;;;;21.80;55.00;;;;;;5074800;28;1955;-66
2020/12/14 03:19:17;;;;;;;;;;;21.90;54.80;;;;;;5047863;28;1296;-66
2020/12/14 03:21:42;;;;;;;;;;;21.90;54.70;;;;;;5060754;28;1191;-66
2020/12/14 03:24:08;;;;;;;;;;;22.00;54.60;;;;;;5064916;28;1248;-66
2020/12/14 03:26:33;;;;;;;;;;;22.00;54.50;;;;;;5066524;28;1282;-65
2020/12/14 03:28:59;;;;;;;;;;;22.10;54.50;;;;;;5065124;28;1363;-66
2020/12/14 03:31:24;;;;;;;;;;;22.10;54.40;;;;;;5048424;28;1298;-65
2020/12/14 03:33:50;;;;;;;;;;;22.10;54.30;;;;;;5064722;28;1192;-66
2020/12/14 03:36:16;;;;;;;;;;;22.10;54.20;;;;;;5029852;28;1953;-65
2020/12/14 03:38:41;;;;;;;;;;;22.20;54.20;;;;;;5049956;28;1290;-67
2020/12/14 03:41:07;;;;;;;;;;;22.20;54.10;;;;;;5027058;28;1343;-66
2020/12/14 03:43:33;;;;;;;;;;;22.20;54.10;;;;;;5056725;28;1352;-65
2020/12/14 03:45:58;;;;;;;;;;;22.20;54.00;;;;;;5074347;28;1368;-65
2020/12/14 03:48:24;;;;;;;;;;;22.30;54.00;;;;;;5075230;28;1288;-66
2020/12/14 03:50:49;;;;;;;;;;;22.30;53.90;;;;;;5075300;28;1323;-66
2020/12/14 03:53:15;;;;;;;;;;;22.30;53.90;;;;;;5075402;28;1293;-66
2020/12/14 03:55:40;;;;;;;;;;;22.30;53.80;;;;;;5055213;28;1107;-67
2020/12/14 03:58:06;;;;;;;;;;;22.40;53.80;;;;;;5056014;28;1887;-67
2020/12/14 04:00:32;;;;;;;;;;;22.40;53.80;;;;;;5056712;28;1358;-66
2020/12/14 04:02:57;;;;;;;;;;;22.40;53.80;;;;;;5057124;28;1327;-67
2020/12/14 04:05:23;;;;;;;;;;;22.40;53.70;;;;;;5056397;28;1366;-66
2020/12/14 04:07:48;;;;;;;;;;;22.40;53.70;;;;;;5056212;28;1286;-66
2020/12/14 04:10:14;;;;;;;;;;;22.50;53.70;;;;;;5056498;28;1276;-66
2020/12/14 04:12:39;;;;;;;;;;;22.50;53.70;;;;;;5056821;28;1104;-66
2020/12/14 04:15:05;;;;;;;;;;;22.50;53.60;;;;;;5073646;28;1283;-67
2020/12/14 04:17:30;;;;;;;;;;;22.50;53.60;;;;;;5073696;28;1949;-66
2020/12/14 04:19:56;;;;;;;;;;;22.50;53.50;;;;;;5074490;28;1300;-67
2020/12/14 04:22:21;;;;;;;;;;;22.50;53.50;;;;;;5074602;28;1334;-66
2020/12/14 04:24:47;;;;;;;;;;;22.60;53.50;;;;;;5055769;28;1302;-67
2020/12/14 04:27:12;;;;;;;;;;;22.60;53.50;;;;;;5055750;28;1354;-66
2020/12/14 04:29:37;;;;;;;;;;;22.60;53.50;;;;;;5056086;28;1330;-65
2020/12/14 04:32:03;;;;;;;;;;;22.60;53.50;;;;;;5074369;28;1509;-67
2020/12/14 04:34:28;;;;;;;;;;;22.60;53.40;;;;;;5073700;28;1383;-66
2020/12/14 04:36:54;;;;;;;;;;;22.60;53.40;;;;;;5055988;28;1905;-66
2020/12/14 04:39:19;;;;;;;;;;;22.60;53.30;;;;;;5073979;28;1290;-66
2020/12/14 04:41:45;;;;;;;;;;;22.60;53.30;;;;;;5056332;28;1527;-67
2020/12/14 04:44:10;;;;;;;;;;;22.70;53.40;;;;;;5074019;28;1328;-66
2020/12/14 04:46:36;;;;;;;;;;;22.70;53.40;;;;;;5038204;28;1319;-66
2020/12/14 04:49:06;;;;;;;;;;;22.70;53.40;;;;;;5056041;28;1360;-66
2020/12/14 04:51:31;;;;;;;;;;;22.70;53.30;;;;;;5055558;28;1495;-66
2020/12/14 04:53:57;;;;;;;;;;;22.70;53.30;;;;;;5073328;28;1186;-66
2020/12/14 04:56:25;;;;;;;;;;;22.70;53.30;;;;;;5055600;28;1906;-67
2020/12/14 04:58:51;;;;;;;;;;;22.70;53.30;;;;;;5055719;28;1307;-66
2020/12/14 05:01:16;;;;;;;;;;;22.80;53.30;;;;;;5055713;28;1384;-66
2020/12/14 05:03:41;;;;;;;;;;;22.80;53.20;;;;;;5072912;28;1299;-66
2020/12/14 05:06:07;;;;;;;;;;;22.80;53.20;;;;;;5073353;28;1333;-67
2020/12/14 05:08:32;;;;;;;;;;;22.80;53.20;;;;;;5055281;28;1287;-66
2020/12/14 05:10:58;;;;;;;;;;;22.80;53.20;;;;;;5056048;28;1377;-67
2020/12/14 05:13:27;;;;;;;;;;;22.80;53.20;;;;;;5066069;28;1372;-66
2020/12/14 05:15:52;;;;;;;;;;;22.80;53.20;;;;;;5055072;28;1306;-67
2020/12/14 05:18:24;;;;;;;;;;;22.80;53.10;;;;;;5073060;28;1948;-67
2020/12/14 05:21:02;;;;;;;;;;;22.80;53.20;;;;;;5073279;28;1319;-66
2020/12/14 05:23:28;;;;;;;;;;;22.80;53.20;;;;;;5072960;28;1347;-66
2020/12/14 05:26:06;;;;;;;;;;;22.80;53.10;;;;;;5055108;28;1278;-66
2020/12/14 05:28:32;;;;;;;;;;;22.80;53.10;;;;;;5041602;28;1346;-66
2020/12/14 05:30:57;;;;;;;;;;;22.80;53.10;;;;;;5055090;28;1295;-66
2020/12/14 05:33:24;;;;;;;;;;;22.80;53.10;;;;;;5069143;28;1312;-65
2020/12/14 05:35:49;;;;;;;;;;;22.80;53.20;;;;;;5063761;28;1303;-67
2020/12/14 05:38:18;;;;;;;;;;;22.80;53.10;;;;;;5038370;28;1951;-66
2020/12/14 05:40:44;;;;;;;;;;;22.80;53.10;;;;;;5072478;28;1213;-66
2020/12/14 05:43:11;;;;;;;;;;;22.80;53.20;;;;;;5055332;28;1317;-67
2020/12/14 05:45:36;;;;;;;;;;;22.80;53.20;;;;;;5054428;28;1112;-66
2020/12/14 05:48:02;;;;;;;;;;;22.80;53.20;;;;;;5054913;28;1057;-67
2020/12/14 05:50:27;;;;;;;;;;;22.80;53.30;;;;;;5054831;28;1407;-66
2020/12/14 05:52:53;;;;;;;;;;;22.80;53.30;;;;;;5072713;28;1283;-65
2020/12/14 05:55:20;;;;;;;;;;;22.80;53.40;;;;;;5054355;28;1300;-67
2020/12/14 05:57:51;;;;;;;;;;;22.70;53.40;;;;;;5053828;28;1969;-67
2020/12/14 06:00:17;;;;;;;;;;;22.70;53.40;;;;;;5054918;28;1388;-66
2020/12/14 06:02:43;;;;;;;;;;;22.70;53.50;;;;;;5072304;28;1366;-67
2020/12/14 06:05:08;;;;;;;;;;;22.70;53.50;;;;;;5054152;28;1224;-66
2020/12/14 06:07:34;;;;;;;;;;;22.70;53.60;;;;;;5054427;28;1104;-65
2020/12/14 06:10:03;;;;;;;;;;;22.70;53.60;;;;;;5072622;28;1366;-67
2020/12/14 06:12:29;;;;;;;;;;;22.60;53.60;;;;;;5072800;28;1342;-67
2020/12/14 06:14:54;;;;;;;;;;;22.60;53.70;;;;;;5063089;23;1698;-77
2020/12/14 06:17:20;;;;;;;;;;;22.60;53.70;;;;;;5053075;28;1902;-78
2020/12/14 06:19:45;;;;;;;;;;;22.60;53.80;;;;;;5037454;28;1291;-78
2020/12/14 06:22:10;;;;;;;;;;;22.60;53.80;;;;;;5056540;28;1167;-78
2020/12/14 06:24:36;;;;;;;;;;;22.50;53.90;;;;;;5038101;28;1264;-78
2020/12/14 06:27:02;;;;;;;;;;;22.50;53.90;;;;;;5054831;28;1194;-78
2020/12/14 06:29:34;;;;;;;;;;;22.50;53.90;;;;;;5055037;28;1304;-78
2020/12/14 06:32:00;;;;;;;;;;;22.50;54.00;;;;;;5054718;28;1263;-77
2020/12/14 06:34:32;;;;;;;;;;;22.50;54.00;;;;;;5026139;28;1347;-78
2020/12/14 06:37:00;;;;;;;;;;;22.40;54.10;;;;;;5059678;28;1955;-77
2020/12/14 06:39:26;;;;;;;;;;;22.40;54.10;;;;;;5037610;28;1289;-78
2020/12/14 06:41:52;;;;;;;;;;;22.40;54.20;;;;;;5026098;28;1159;-78
2020/12/14 06:44:17;;;;;;;;;;;22.40;54.20;;;;;;5037968;28;1357;-78
2020/12/14 06:46:44;;;;;;;;;;;22.40;54.30;;;;;;5054503;28;1072;-78
2020/12/14 06:49:09;;;;;;;;;;;22.40;54.30;;;;;;5038013;28;1217;-78
2020/12/14 06:51:54;;;;;;;;;;;22.40;54.30;;;;;;5054673;28;1299;-78
2020/12/14 06:54:38;;;;;;;;;;;22.30;54.30;;;;;;5037658;28;1300;-78
2020/12/14 06:57:03;;;;;;;;;;;22.30;54.40;;;;;;5071050;28;1906;-78
2020/12/14 06:59:29;;;;;;;;;;;22.30;54.40;;;;;;5038001;28;1290;-78
2020/12/14 07:01:55;;;;;;;;;;;22.30;54.50;;;;;;5072592;28;1071;-78
2020/12/14 07:04:21;;;;;;;;;;;22.30;54.50;;;;;;5037619;28;1330;-78
2020/12/14 07:06:46;;;;;;;;;;;22.20;54.50;;;;;;5054304;28;1284;-79
2020/12/14 07:09:38;;;;;;;;;;;22.20;54.60;;;;;;5056074;28;1220;-78
2020/12/14 07:12:10;;;;;;;;;;;22.20;54.60;;;;;;5053948;28;1321;-78
2020/12/14 07:14:43;;;;;;;;;;;22.20;54.60;;;;;;5058133;28;1276;-78
2020/12/14 07:17:08;;;;;;;;;;;22.20;54.70;;;;;;5041421;28;1965;-78
2020/12/14 07:19:35;;;;;;;;;;;22.20;54.70;;;;;;5045877;23;2567;-64
2020/12/14 07:22:01;;;;;;;;;;;22.10;55.30;;;;;;5073737;28;1194;-64
2020/12/14 07:24:35;;;;;;;;;;;22.10;54.70;;;;;;5058051;28;1369;-64
2020/12/14 07:27:01;;;;;;;;;;;22.10;54.80;;;;;;5075504;28;1417;-64
2020/12/14 07:29:27;;;;;;;;;;;22.10;54.80;;;;;;5075469;28;1304;-64
2020/12/14 07:31:52;;;;;;;;;;;22.10;54.90;;;;;;5055724;28;1103;-64
2020/12/14 07:34:17;;;;;;;;;;;22.10;54.90;;;;;;5095645;23;1922;-66
2020/12/14 07:36:43;;;;;;;;;;;22.10;55.00;;;;;;5116069;28;1969;-68
2020/12/14 07:39:08;;;;;;;;;;;22.00;54.90;;;;;;5114891;28;1365;-67
2020/12/14 07:41:34;;;;;;;;;;;22.00;55.00;;;;;;5116063;28;1316;-67
2020/12/14 07:44:00;;;;;;;;;;;22.00;55.10;;;;;;5116054;28;1350;-67
2020/12/14 07:46:33;;;;;;;;;;;22.00;55.10;;;;;;5115827;28;1333;-67
2020/12/14 07:48:59;;;;;;;;;;;21.90;55.10;;;;;;5116144;28;1300;-67
2020/12/14 07:51:28;;;;;;;;;;;21.90;55.10;;;;;;5097992;28;1413;-67
2020/12/14 07:54:01;;;;;;;;;;;22.00;55.20;;;;;;5097562;28;1386;-66
2020/12/14 07:56:27;;;;;;;;;;;21.90;55.10;;;;;;5097474;28;1898;-67
2020/12/14 07:58:52;;;;;;;;;;;21.90;55.10;;;;;;5115776;28;1344;-67
2020/12/14 08:01:18;;;;;;;;;;;21.90;55.20;;;;;;5115615;28;1301;-67
2020/12/14 08:03:44;;;;;;;;;;;21.90;55.30;;;;;;5097400;28;1372;-68
2020/12/14 08:06:10;;;;;;;;;;;21.80;55.20;;;;;;5115539;28;1201;-67
2020/12/14 08:08:36;;;;;;;;;;;21.80;55.30;;;;;;5097340;28;1146;-67
2020/12/14 08:11:01;;;;;;;;;;;21.80;55.30;;;;;;5097294;28;1314;-67
2020/12/14 08:13:27;;;;;;;;;;;21.80;55.30;;;;;;5089670;28;1379;-67
2020/12/14 08:15:52;;;;;;;;;;;21.80;55.30;;;;;;5084510;28;1368;-68
2020/12/14 08:18:18;;;;;;;;;;;21.90;55.20;;;;;;5075344;28;1910;-67
2020/12/14 08:20:43;;;;;;;;;;;21.90;55.10;;;;;;5095963;28;1166;-67
2020/12/14 08:23:18;;;;;;;;;;;21.90;55.10;;;;;;5096935;28;1536;-65
2020/12/14 08:25:44;;;;;;;;;;;22.00;55.10;;;;;;5096899;28;1151;-67
2020/12/14 08:28:10;;;;;;;;;;;22.00;55.10;;;;;;5115112;28;1279;-68
2020/12/14 08:30:38;;;;;;;;;;;22.00;55.00;;;;;;5096717;28;1388;-67
2020/12/14 08:33:10;;;;;;;;;;;22.00;54.90;;;;;;5096405;28;1427;-67
2020/12/14 08:35:41;;;;;;;;;;;22.00;54.90;;;;;;5115157;28;1090;-66
2020/12/14 08:38:07;;;;;;;;;;;22.10;54.90;;;;;;5092773;28;2074;-65
2020/12/14 08:40:33;;;;;;;;;;;22.10;54.90;;;;;;5091861;28;1219;-66
2020/12/14 08:43:11;;;;;;;;;;;22.10;54.80;;;;;;5096352;28;1396;-67
2020/12/14 08:45:56;;;;;;;;;;;22.10;54.70;;;;;;5096455;28;1339;-66
2020/12/14 08:48:21;;;;;;;;;;;22.10;54.70;;;;;;5114814;28;1309;-67
2020/12/14 08:50:47;;;;;;;;;;;22.10;54.60;;;;;;5114744;28;1371;-67
2020/12/14 08:53:12;;;;;;;;;;;22.20;54.70;;;;;;5114445;28;1301;-66
2020/12/14 08:55:38;;;;;;;;;;;22.20;54.70;;;;;;5096264;28;1280;-66
2020/12/14 08:58:04;;;;;;;;;;;22.20;54.60;;;;;;5096015;28;2018;-66
2020/12/14 09:00:29;;;;;;;;;;;22.20;54.60;;;;;;5096663;28;1377;-67
2020/12/14 09:02:58;;;;;;;;;;;22.20;54.60;;;;;;5114501;28;1377;-67
2020/12/14 09:05:24;;;;;;;;;;;22.20;54.60;;;;;;5114385;28;1289;-66
2020/12/14 09:07:49;;;;;;;;;;;22.20;54.50;;;;;;5096143;28;1321;-67
2020/12/14 09:10:15;;;;;;;;;;;22.20;54.50;;;;;;5114477;28;1361;-67
2020/12/14 09:12:40;;;;;;;;;;;22.20;54.50;;;;;;5114471;28;1417;-66
2020/12/14 09:15:06;;;;;;;;;;;22.20;54.60;;;;;;5095834;28;1361;-67
2020/12/14 09:17:31;;;;;;;;;;;22.20;54.60;;;;;;5095869;28;1902;-67
2020/12/14 09:19:57;;;;;;;;;;;22.20;54.60;;;;;;5114853;28;1307;-66
2020/12/14 09:22:25;;;;;;;;;;;22.20;54.60;;;;;;5114074;28;1237;-67
2020/12/14 09:24:50;;;;;;;;;;;22.10;54.60;;;;;;5095987;28;1350;-66
2020/12/14 09:27:16;;;;;;;;;;;22.20;54.70;;;;;;5095882;28;1494;-67
2020/12/14 09:29:41;;;;;;;;;;;22.20;54.60;;;;;;5095685;28;1265;-67
2020/12/14 09:32:09;;;;;;;;;;;22.10;54.60;;;;;;5113964;28;1362;-67
2020/12/14 09:34:34;;;;;;;;;;;22.10;54.60;;;;;;5095539;28;1341;-66
2020/12/14 09:37:00;;;;;;;;;;;22.10;54.70;;;;;;5113726;28;1964;-67
2020/12/14 09:39:26;;;;;;;;;;;22.10;54.70;;;;;;5114088;28;1309;-68
2020/12/14 09:41:51;;;;;;;;;;;22.10;54.70;;;;;;5075650;28;1390;-68
2020/12/14 09:44:17;;;;;;;;;;;22.10;54.70;;;;;;5107235;28;1401;-68
2020/12/14 09:46:43;;;;;;;;;;;22.10;54.70;;;;;;5114328;28;1352;-67
2020/12/14 09:49:08;;;;;;;;;;;22.10;54.70;;;;;;5095849;28;1322;-68
2020/12/14 09:51:34;;;;;;;;;;;22.10;54.70;;;;;;5095744;28;1326;-68
2020/12/14 09:54:00;;;;;;;;;;;22.10;54.80;;;;;;5075897;28;1291;-68
2020/12/14 09:56:25;;;;;;;;;;;22.10;54.80;;;;;;5095439;28;1959;-67
2020/12/14 09:58:51;;;;;;;;;;;22.10;54.80;;;;;;5113767;28;1348;-67
2020/12/14 10:01:16;;;;;;;;;;;22.10;54.80;;;;;;5095481;28;1190;-68
2020/12/14 10:03:42;;;;;;;;;;;22.10;54.80;;;;;;5095390;28;1353;-68
2020/12/14 10:06:14;;;;;;;;;;;22.10;54.80;;;;;;5113773;28;1311;-66
2020/12/14 10:08:39;;;;;;;;;;;22.10;54.70;;;;;;5113544;28;1361;-66
2020/12/14 10:11:05;;;;;;;;;;;22.20;54.70;;;;;;5113861;28;1254;-68
2020/12/14 10:13:31;;;;;;;;;;;22.20;54.60;;;;;;5095321;28;1385;-67
2020/12/14 10:15:56;;;;;;;;;;;22.20;54.60;;;;;;5113479;28;1341;-68
2020/12/14 10:18:22;;;;;;;;;;;22.20;54.50;;;;;;5095051;28;1945;-67
2020/12/14 10:20:47;;;;;;;;;;;22.30;54.40;;;;;;5095287;28;1513;-66
2020/12/14 10:23:13;;;;;;;;;;;22.30;54.40;;;;;;5094455;28;1303;-68
2020/12/14 10:25:39;;;;;;;;;;;22.30;54.30;;;;;;5095011;28;1346;-68
2020/12/14 10:28:04;;;;;;;;;;;22.30;54.30;;;;;;5113137;28;1321;-66
2020/12/14 10:30:30;;;;;;;;;;;22.40;54.30;;;;;;5095153;28;1424;-67
2020/12/14 10:32:56;;;;;;;;;;;22.30;54.20;;;;;;5113155;28;1281;-66
2020/12/14 10:35:21;;;;;;;;;;;22.40;54.20;;;;;;5094760;28;1339;-68
2020/12/14 10:37:48;;;;;;;;;;;22.40;54.10;;;;;;5112872;28;1969;-67
2020/12/14 10:40:13;;;;;;;;;;;22.40;54.10;;;;;;5112973;28;1408;-67
2020/12/14 10:42:39;;;;;;;;;;;22.40;54.10;;;;;;5113126;28;1312;-66
2020/12/14 10:45:04;;;;;;;;;;;22.40;54.10;;;;;;5116178;28;1475;-66
2020/12/14 10:47:30;;;;;;;;;;;22.40;54.00;;;;;;5117099;28;1324;-67
2020/12/14 10:49:55;;;;;;;;;;;22.40;54.00;;;;;;5116936;28;1226;-67
2020/12/14 10:52:21;;;;;;;;;;;22.40;54.00;;;;;;5098645;28;1400;-65
2020/12/14 10:54:46;;;;;;;;;;;22.40;54.00;;;;;;5098474;28;1342;-66
2020/12/14 10:57:11;;;;;;;;;;;22.40;54.00;;;;;;5098609;28;1949;-65
2020/12/14 10:59:37;;;;;;;;;;;22.40;54.00;;;;;;5116815;28;1456;-65
2020/12/14 11:02:02;;;;;;;;;;;22.40;54.00;;;;;;5116647;28;1378;-65
2020/12/14 11:04:28;;;;;;;;;;;22.40;54.10;;;;;;5116495;28;1431;-65
2020/12/14 11:06:53;;;;;;;;;;;22.40;54.00;;;;;;5081195;28;1359;-66
2020/12/14 11:09:19;;;;;;;;;;;22.40;54.10;;;;;;5098570;28;1361;-66
2020/12/14 11:11:44;;;;;;;;;;;22.40;54.10;;;;;;5116818;28;1309;-64
2020/12/14 11:14:10;;;;;;;;;;;22.40;54.10;;;;;;5108857;28;1355;-66
2020/12/14 11:16:39;;;;;;;;;;;22.40;54.10;;;;;;5116361;28;1889;-66
2020/12/14 11:19:05;;;;;;;;;;;22.40;54.20;;;;;;5116483;28;1305;-64
2020/12/14 11:21:30;;;;;;;;;;;22.40;54.20;;;;;;5116609;28;1446;-66
2020/12/14 11:23:56;;;;;;;;;;;22.40;54.20;;;;;;5098166;28;1416;-65
2020/12/14 11:26:21;;;;;;;;;;;22.40;54.20;;;;;;5098073;28;1350;-65
2020/12/14 11:28:47;;;;;;;;;;;22.30;54.20;;;;;;5116259;28;1404;-66
2020/12/14 11:31:12;;;;;;;;;;;22.30;54.20;;;;;;5097960;28;1288;-66
2020/12/14 11:33:37;;;;;;;;;;;22.30;54.30;;;;;;5097576;28;1335;-65
2020/12/14 11:36:03;;;;;;;;;;;22.30;54.30;;;;;;5115733;28;1370;-64
2020/12/14 11:38:30;;;;;;;;;;;22.30;54.30;;;;;;5116081;28;1917;-65
2020/12/14 11:40:56;;;;;;;;;;;22.30;54.40;;;;;;5116201;28;1316;-66
2020/12/14 11:43:22;;;;;;;;;;;22.30;54.40;;;;;;5097519;28;1437;-66
2020/12/14 11:45:47;;;;;;;;;;;22.30;54.40;;;;;;5115970;28;1360;-65
2020/12/14 11:48:13;;;;;;;;;;;22.20;54.40;;;;;;5097468;28;1292;-66
2020/12/14 11:50:38;;;;;;;;;;;22.20;54.50;;;;;;5115980;28;1059;-66
2020/12/14 11:53:04;;;;;;;;;;;22.20;54.50;;;;;;5115936;28;1320;-67
2020/12/14 11:55:29;;;;;;;;;;;22.20;54.60;;;;;;5109432;28;1949;-64
2020/12/14 11:57:55;;;;;;;;;;;22.20;54.60;;;;;;5088997;28;2012;-66
2020/12/14 12:00:20;;;;;;;;;;;22.10;54.60;;;;;;5105083;28;2005;-67
2020/12/14 12:02:46;;;;;;;;;;;22.10;54.60;;;;;;5111298;28;1096;-66
2020/12/14 12:05:11;;;;;;;;;;;22.10;54.70;;;;;;5114315;28;1333;-67
2020/12/14 12:07:36;;;;;;;;;;;22.10;52.80;;;;;;5115331;28;1315;-66
2020/12/14 12:10:03;;;;;;;;;;;22.00;49.80;;;;;;5097562;28;1247;-66
2020/12/14 12:12:28;;;;;;;;;;;21.90;47.70;;;;;;5115310;28;1357;-66
2020/12/14 12:14:54;;;;;;;;;;;21.80;46.10;;;;;;5096804;28;1441;-66
2020/12/14 12:17:20;;;;;;;;;;;21.70;44.90;;;;;;5115116;28;1973;-66
2020/12/14 12:19:46;;;;;;;;;;;21.60;45.20;;;;;;5097069;28;1345;-67
2020/12/14 12:22:11;;;;;;;;;;;21.50;44.50;;;;;;5097105;28;1179;-66
2020/12/14 12:24:37;;;;;;;;;;;21.40;44.30;;;;;;5096693;28;1434;-66
2020/12/14 12:27:02;;;;;;;;;;;21.40;43.90;;;;;;5097783;28;1326;-66
2020/12/14 12:29:28;;;;;;;;;;;21.30;44.10;;;;;;5108039;28;1231;-66
2020/12/14 12:31:54;;;;;;;;;;;21.20;42.90;;;;;;5112057;28;1325;-66
2020/12/14 12:34:20;;;;;;;;;;;21.20;42.80;;;;;;5070104;28;1213;-66
2020/12/14 12:36:49;;;;;;;;;;;21.10;43.20;;;;;;5112894;28;1910;-67
2020/12/14 12:39:14;;;;;;;;;;;21.10;43.00;;;;;;5111940;28;1173;-65
2020/12/14 12:41:43;;;;;;;;;;;21.00;43.10;;;;;;5095823;28;1214;-66
2020/12/14 12:44:08;;;;;;;;;;;21.00;42.60;;;;;;5075761;28;1351;-66
2020/12/14 12:46:34;;;;;;;;;;;20.90;42.70;;;;;;5110409;28;1377;-66
2020/12/14 12:48:59;;;;;;;;;;;20.90;42.30;;;;;;5091756;28;1330;-66
2020/12/14 12:51:25;;;;;;;;;;;20.80;43.00;;;;;;5091567;28;1188;-65
2020/12/14 12:53:50;;;;;;;;;;;20.80;42.80;;;;;;5104167;28;1255;-66
2020/12/14 12:56:21;;;;;;;;;;;20.70;43.50;;;;;;5114139;28;1389;-66
2020/12/14 12:58:47;;;;;;;;;;;20.70;42.90;;;;;;5075956;28;1965;-65
2020/12/14 13:01:13;;;;;;;;;;;20.70;43.20;;;;;;5085978;28;1327;-66
2020/12/14 13:03:38;;;;;;;;;;;20.70;43.50;;;;;;5092052;28;1389;-66
2020/12/14 13:06:04;;;;;;;;;;;20.70;43.40;;;;;;5094453;28;1379;-66
2020/12/14 13:08:29;;;;;;;;;;;20.60;43.50;;;;;;5114293;28;1326;-65
2020/12/14 13:10:55;;;;;;;;;;;20.60;43.40;;;;;;5096047;28;1332;-65
2020/12/14 13:13:20;;;;;;;;;;;20.60;43.90;;;;;;5107100;28;1442;-66
2020/12/14 13:15:47;;;;;;;;;;;20.60;43.10;;;;;;5112401;28;1374;-65
2020/12/14 13:18:12;;;;;;;;;;;20.50;43.10;;;;;;5113769;28;1953;-66
2020/12/14 13:20:38;;;;;;;;;;;20.50;43.40;;;;;;5114094;28;1302;-65
2020/12/14 13:23:03;;;;;;;;;;;20.50;43.70;;;;;;5095693;28;1362;-66
2020/12/14 13:25:28;;;;;;;;;;;20.50;43.20;;;;;;5095505;28;1339;-66
2020/12/14 13:27:54;;;;;;;;;;;20.50;42.50;;;;;;5113772;28;1392;-66
2020/12/14 13:30:19;;;;;;;;;;;20.50;42.90;;;;;;5113647;28;1213;-65
2020/12/14 13:32:45;;;;;;;;;;;20.50;41.90;;;;;;5113747;28;1290;-66
2020/12/14 13:35:10;;;;;;;;;;;20.40;42.30;;;;;;5113835;28;1379;-66
2020/12/14 13:37:36;;;;;;;;;;;20.40;42.00;;;;;;5113753;28;1906;-65
2020/12/14 13:40:04;;;;;;;;;;;20.40;42.80;;;;;;5113749;28;1302;-66
2020/12/14 13:42:30;;;;;;;;;;;20.40;42.80;;;;;;5113817;28;1366;-66
2020/12/14 13:44:56;;;;;;;;;;;20.40;42.70;;;;;;5113111;28;1355;-64
2020/12/14 13:47:22;;;;;;;;;;;20.30;42.10;;;;;;5095178;28;1158;-66
2020/12/14 13:49:49;;;;;;;;;;;20.30;41.60;;;;;;5113431;28;1321;-66
2020/12/14 13:52:14;;;;;;;;;;;20.30;41.70;;;;;;5113343;28;1279;-65
2020/12/14 13:54:40;;;;;;;;;;;20.30;41.70;;;;;;5113193;28;1676;-65
2020/12/14 13:57:05;;;;;;;;;;;20.20;41.70;;;;;;5095092;28;1902;-65
2020/12/14 13:59:31;;;;;;;;;;;20.20;42.40;;;;;;5095001;28;1199;-66
2020/12/14 14:01:56;;;;;;;;;;;20.20;42.10;;;;;;5091967;28;1712;-65
2020/12/14 14:04:22;;;;;;;;;;;20.20;42.30;;;;;;5108776;28;1869;-63
2020/12/14 14:06:50;;;;;;;;;;;20.20;41.80;;;;;;5087604;28;1476;-65
2020/12/14 14:09:16;;;;;;;;;;;20.20;41.80;;;;;;5087332;28;1909;-66
2020/12/14 14:11:42;;;;;;;;;;;20.10;41.60;;;;;;5087355;28;1319;-65
2020/12/14 14:14:08;;;;;;;;;;;20.10;42.20;;;;;;5089015;28;1338;-65
2020/12/14 14:16:33;;;;;;;;;;;20.10;43.30;;;;;;5080312;28;1984;-65
2020/12/14 14:18:59;;;;;;;;;;;20.10;43.60;;;;;;5114409;28;1953;-64
2020/12/14 14:21:24;;;;;;;;;;;20.10;43.80;;;;;;5118123;28;1276;-65
2020/12/14 14:23:50;;;;;;;;;;;20.20;44.10;;;;;;5117028;28;1546;-65